FUE weather

Fuerteventura Airport
Fuerteventura Island, Canary Islands, Spain

Public forecast

Using degrees Celsius for public forecast. Weather courtesy of forecast.io.

Current aviation weather report (METAR) for Fuerteventura Airport

Retrieved 2019/10/16 19:30 UTC (0 seconds ago):

GCFV 161930Z 06007KT 9999 FEW030 SCT040 22/17 Q1020

Aviation forecast (TAF) for Fuerteventura Airport

Retrieved 2019/10/16 21:00 UTC (0 seconds ago):

TAF GCFV 162000Z 1621/1721 05010KT 9999 SCT025 TX25/1714Z TN20/1705Z BECMG 1621/1623 35008KT BECMG 1709/1711 05015KT